Time;durP1;ratioP1;P1;durP2;ratioP2;P2;SDS_P1;SDS_P2;PMS_P1;PMS_P2;Temp;Humidity;BMP_temperature;BMP_pressure;BME280_temperature;BME280_humidity;BME280_pressure;Samples;Min_cycle;Max_cycle;Signal;HPM_P1;HPM_P2
2021/10/31 00:01:10;;;;;;;1.67;1.20;;;11.70;99.90;;;;;;4444409;32;20120;-69
2021/10/31 00:03:35;;;;;;;1.90;1.35;;;11.80;99.90;;;;;;4430591;32;20155;-69
2021/10/31 00:06:01;;;;;;;1.98;1.20;;;11.80;99.90;;;;;;4444168;32;20615;-69
2021/10/31 00:08:27;;;;;;;1.58;1.30;;;11.80;99.90;;;;;;4443514;32;20074;-69
2021/10/31 00:10:52;;;;;;;3.12;1.73;;;11.80;99.90;;;;;;4443899;32;20077;-70
2021/10/31 00:13:18;;;;;;;1.75;1.23;;;11.80;99.90;;;;;;4444378;32;20061;-70
2021/10/31 00:15:44;;;;;;;2.03;1.50;;;11.80;99.90;;;;;;4444186;32;20412;-69
2021/10/31 00:18:09;;;;;;;1.92;1.08;;;11.80;99.90;;;;;;4444419;32;20074;-69
2021/10/31 00:20:35;;;;;;;0.95;0.82;;;11.80;99.90;;;;;;4443973;32;20085;-69
2021/10/31 00:23:00;;;;;;;1.33;1.00;;;11.80;99.90;;;;;;4443661;32;20064;-69
2021/10/31 00:25:26;;;;;;;0.80;0.80;;;11.90;99.90;;;;;;4430659;32;20424;-70
2021/10/31 00:27:51;;;;;;;1.90;1.45;;;12.00;99.90;;;;;;4428620;32;20061;-69
2021/10/31 00:30:17;;;;;;;1.83;1.23;;;11.90;99.90;;;;;;4428827;32;20069;-69
2021/10/31 00:32:42;;;;;;;5.78;1.40;;;11.90;99.90;;;;;;4428166;32;20479;-69
2021/10/31 00:35:08;;;;;;;1.87;1.30;;;12.00;99.90;;;;;;4428464;32;20132;-69
2021/10/31 00:37:33;;;;;;;13.07;2.28;;;12.00;99.90;;;;;;4434815;32;20070;-69
2021/10/31 00:39:59;;;;;;;6.68;1.48;;;12.00;99.90;;;;;;4443994;32;20073;-69
2021/10/31 00:42:25;;;;;;;1.12;1.00;;;12.00;99.90;;;;;;4443497;32;20131;-69
2021/10/31 00:44:50;;;;;;;1.87;1.52;;;12.00;99.90;;;;;;4443909;32;20085;-69
2021/10/31 00:47:16;;;;;;;2.85;1.55;;;12.00;99.90;;;;;;4442959;32;20081;-69
2021/10/31 00:49:41;;;;;;;3.92;1.30;;;12.00;99.90;;;;;;4444443;32;20494;-69
2021/10/31 00:52:10;;;;;;;1.08;0.73;;;12.10;99.90;;;;;;4445101;32;20514;-69
2021/10/31 00:54:36;;;;;;;1.67;1.23;;;12.10;99.90;;;;;;4443930;32;20087;-69
2021/10/31 00:57:02;;;;;;;2.25;1.02;;;12.10;99.90;;;;;;4443384;32;20429;-70
2021/10/31 00:59:27;;;;;;;1.00;0.90;;;12.10;99.90;;;;;;4444096;32;20076;-69
2021/10/31 01:01:53;;;;;;;5.28;2.55;;;12.10;99.90;;;;;;4443503;32;20505;-69
2021/10/31 01:04:20;;;;;;;2.58;1.00;;;12.20;99.90;;;;;;4443716;32;20147;-68
2021/10/31 01:07:06;;;;;;;1.48;1.00;;;12.20;99.90;;;;;;4443403;32;20460;-69
2021/10/31 01:09:54;;;;;;;1.12;1.02;;;12.20;99.90;;;;;;4443187;32;20647;-69
2021/10/31 01:12:41;;;;;;;3.50;1.67;;;12.20;99.90;;;;;;4443562;32;20145;-70
2021/10/31 01:15:19;;;;;;;1.42;1.12;;;12.30;99.90;;;;;;4417257;32;20081;-69
2021/10/31 01:18:11;;;;;;;1.17;0.95;;;12.30;99.90;;;;;;4444868;32;20415;-69
2021/10/31 01:20:58;;;;;;;4.80;1.90;;;12.40;99.90;;;;;;4431737;32;20091;-70
2021/10/31 01:23:36;;;;;;;1.20;1.10;;;12.30;99.90;;;;;;4431689;32;20072;-69
2021/10/31 01:26:23;;;;;;;0.80;0.80;;;12.40;99.90;;;;;;4443510;32;20645;-69
2021/10/31 01:29:23;;;;;;;0.82;0.75;;;12.40;99.90;;;;;;4431643;32;20061;-70
2021/10/31 01:32:00;;;;;;;3.28;1.05;;;12.40;99.90;;;;;;4433241;32;20609;-69
2021/10/31 01:34:54;;;;;;;5.80;1.25;;;12.40;99.90;;;;;;4442935;32;20073;-69
2021/10/31 01:37:32;;;;;;;1.60;1.45;;;12.40;99.90;;;;;;4419145;32;20173;-69
2021/10/31 01:40:13;;;;;;;2.35;1.37;;;12.40;99.90;;;;;;4443547;32;20577;-69
2021/10/31 01:42:46;;;;;;;0.93;0.93;;;12.50;99.90;;;;;;4444272;32;20092;-69
2021/10/31 01:45:30;;;;;;;1.42;1.00;;;12.40;99.90;;;;;;4428706;32;20080;-69
2021/10/31 01:48:07;;;;;;;2.42;1.12;;;12.40;99.90;;;;;;4443520;32;20069;-68
2021/10/31 01:50:39;;;;;;;0.60;0.60;;;12.40;99.90;;;;;;4443242;32;20057;-69
2021/10/31 01:53:13;;;;;;;1.50;0.65;;;12.30;99.90;;;;;;4443212;32;20069;-69
2021/10/31 01:55:45;;;;;;;5.57;1.33;;;12.30;99.90;;;;;;4443619;32;20472;-68
2021/10/31 01:58:13;;;;;;;2.45;1.33;;;12.30;99.90;;;;;;4443079;32;20138;-68
2021/10/31 02:00:42;;;;;;;1.30;0.80;;;12.30;99.90;;;;;;4443320;32;20483;-69
2021/10/31 02:03:09;;;;;;;2.03;0.88;;;12.20;99.90;;;;;;4442990;32;20090;-70
2021/10/31 02:05:38;;;;;;;2.78;0.82;;;12.20;99.90;;;;;;4443961;32;20064;-69
2021/10/31 02:08:07;;;;;;;1.52;0.77;;;12.20;99.90;;;;;;4443855;32;20433;-70
2021/10/31 02:10:34;;;;;;;2.75;0.88;;;12.20;99.90;;;;;;4442564;32;20061;-70
2021/10/31 02:13:02;;;;;;;0.98;0.98;;;12.10;99.90;;;;;;4443920;32;20061;-69
2021/10/31 02:15:28;;;;;;;0.95;0.95;;;12.20;99.90;;;;;;4442862;32;20061;-70
2021/10/31 02:17:55;;;;;;;1.37;1.12;;;12.10;99.90;;;;;;4443007;32;20098;-69
2021/10/31 02:20:22;;;;;;;1.10;0.82;;;12.10;99.90;;;;;;4442384;32;20073;-69
2021/10/31 02:22:52;;;;;;;2.30;1.00;;;12.10;99.90;;;;;;4443208;32;20139;-69
2021/10/31 02:25:17;;;;;;;0.73;0.73;;;12.10;99.90;;;;;;4430053;32;20420;-69
2021/10/31 02:27:45;;;;;;;15.20;0.73;;;12.00;99.90;;;;;;4427034;32;20069;-68
2021/10/31 02:30:11;;;;;;;1.52;0.88;;;12.00;99.90;;;;;;4428685;32;20070;-69
2021/10/31 02:32:37;;;;;;;3.10;1.65;;;11.90;99.90;;;;;;4429809;32;20073;-69
2021/10/31 02:35:06;;;;;;;0.73;0.70;;;12.00;99.90;;;;;;4430061;32;20070;-69
2021/10/31 02:37:32;;;;;;;4.03;1.55;;;12.00;99.90;;;;;;4436517;32;20065;-69
2021/10/31 02:39:57;;;;;;;1.48;1.15;;;12.00;99.90;;;;;;4445751;32;20113;-70
2021/10/31 02:42:23;;;;;;;0.68;0.68;;;11.90;99.90;;;;;;4445864;32;20416;-69
2021/10/31 02:44:48;;;;;;;2.35;1.02;;;12.00;99.90;;;;;;4446854;32;20064;-69
2021/10/31 02:47:22;;;;;;;2.12;1.50;;;11.80;99.90;;;;;;4446057;32;20085;-69
2021/10/31 02:49:48;;;;;;;1.42;1.00;;;11.80;99.90;;;;;;4446436;32;20110;-69
2021/10/31 02:52:21;;;;;;;1.00;1.00;;;11.80;99.90;;;;;;4445255;32;20206;-70
2021/10/31 02:54:59;;;;;;;1.77;1.30;;;11.80;99.90;;;;;;4445212;32;20085;-69
2021/10/31 02:57:42;;;;;;;0.80;0.80;;;11.80;99.90;;;;;;4446108;32;20089;-69
2021/10/31 03:00:10;;;;;;;0.62;0.62;;;11.80;99.90;;;;;;4446475;32;20065;-69
2021/10/31 03:02:36;;;;;;;1.23;1.10;;;11.90;99.90;;;;;;4444561;32;20089;-69
2021/10/31 03:05:02;;;;;;;0.90;0.90;;;11.90;99.90;;;;;;4445250;32;20056;-69
2021/10/31 03:07:28;;;;;;;1.25;1.00;;;11.90;99.90;;;;;;4445163;32;20135;-69
2021/10/31 03:09:53;;;;;;;1.25;1.15;;;11.80;99.90;;;;;;4445467;32;20081;-69
2021/10/31 03:12:19;;;;;;;6.95;2.58;;;11.80;99.90;;;;;;4445322;32;20097;-70
2021/10/31 03:14:45;;;;;;;0.98;0.70;;;11.80;99.90;;;;;;4444978;32;20447;-69
2021/10/31 03:17:12;;;;;;;1.95;0.88;;;11.90;99.90;;;;;;4444853;32;20073;-69
2021/10/31 03:19:38;;;;;;;0.73;0.73;;;11.90;99.90;;;;;;4444649;32;20116;-69
2021/10/31 03:22:05;;;;;;;3.83;0.95;;;11.80;99.90;;;;;;4444816;32;20086;-69
2021/10/31 03:24:31;;;;;;;1.65;1.05;;;11.80;99.90;;;;;;4437081;32;20061;-67
2021/10/31 03:26:56;;;;;;;1.02;0.93;;;11.80;99.90;;;;;;4430573;32;20389;-69
2021/10/31 03:29:24;;;;;;;4.72;0.88;;;11.80;99.90;;;;;;4433738;32;20082;-69
2021/10/31 03:31:51;;;;;;;0.50;0.50;;;11.90;99.90;;;;;;4444598;32;20526;-69
2021/10/31 03:34:16;;;;;;;0.80;0.80;;;11.90;99.90;;;;;;4432550;32;20077;-69
2021/10/31 03:36:42;;;;;;;0.70;0.70;;;11.90;99.90;;;;;;4430700;32;20065;-69
2021/10/31 03:39:08;;;;;;;0.88;0.88;;;11.90;99.90;;;;;;4445009;32;20112;-69
2021/10/31 03:41:33;;;;;;;1.83;1.33;;;11.90;99.90;;;;;;4444787;32;20068;-69
2021/10/31 03:43:59;;;;;;;1.75;0.70;;;11.90;99.90;;;;;;4445781;32;20128;-69
2021/10/31 03:46:25;;;;;;;1.12;1.00;;;11.90;99.90;;;;;;4445565;32;20119;-68
2021/10/31 03:48:50;;;;;;;0.73;0.70;;;11.90;99.90;;;;;;4444487;32;20514;-68
2021/10/31 03:51:16;;;;;;;1.30;1.00;;;12.00;99.90;;;;;;4444388;32;20065;-68
2021/10/31 03:53:41;;;;;;;1.98;1.00;;;12.00;99.90;;;;;;4445147;32;20077;-70
2021/10/31 03:56:07;;;;;;;1.23;1.12;;;12.10;99.90;;;;;;4444532;32;20069;-68
2021/10/31 03:58:32;;;;;;;2.92;1.15;;;12.10;99.90;;;;;;4444564;32;20061;-69
2021/10/31 04:01:00;;;;;;;1.70;0.80;;;12.10;99.90;;;;;;4444125;32;20119;-68
2021/10/31 04:03:25;;;;;;;0.77;0.73;;;12.10;99.90;;;;;;4444978;32;20385;-69
2021/10/31 04:05:51;;;;;;;1.48;0.80;;;12.10;99.90;;;;;;4444256;32;20068;-69
2021/10/31 04:08:16;;;;;;;0.45;0.45;;;12.10;99.90;;;;;;4444362;32;20069;-68
2021/10/31 04:10:42;;;;;;;0.80;0.80;;;12.10;99.90;;;;;;4444386;32;20116;-69
2021/10/31 04:13:07;;;;;;;5.60;1.55;;;12.10;99.90;;;;;;4444186;32;20060;-70
2021/10/31 04:15:33;;;;;;;3.15;0.82;;;12.10;99.90;;;;;;4430233;32;20069;-69
2021/10/31 04:17:58;;;;;;;0.68;0.68;;;12.10;99.90;;;;;;4444242;32;20069;-69
2021/10/31 04:20:24;;;;;;;0.70;0.70;;;12.10;99.90;;;;;;4443536;32;20076;-69
2021/10/31 04:22:50;;;;;;;1.30;1.20;;;12.10;99.90;;;;;;4444101;32;20112;-69
2021/10/31 04:25:15;;;;;;;0.65;0.65;;;12.10;99.90;;;;;;4431655;32;20510;-68
2021/10/31 04:27:41;;;;;;;2.03;1.00;;;12.10;99.90;;;;;;4428935;32;20117;-69
2021/10/31 04:30:08;;;;;;;5.72;0.85;;;12.10;99.90;;;;;;4430127;32;20136;-69
2021/10/31 04:32:36;;;;;;;0.80;0.60;;;12.20;99.90;;;;;;4425952;32;80055;-69
2021/10/31 04:35:02;;;;;;;0.50;0.50;;;12.10;99.90;;;;;;4428273;32;20061;-69
2021/10/31 04:37:28;;;;;;;0.75;0.75;;;12.10;99.90;;;;;;4434725;32;20053;-68
2021/10/31 04:39:54;;;;;;;0.93;0.68;;;12.10;99.90;;;;;;4444097;32;20068;-69
2021/10/31 04:42:20;;;;;;;1.35;0.85;;;12.10;99.90;;;;;;4443416;32;20199;-69
2021/10/31 04:44:45;;;;;;;1.40;0.88;;;12.10;99.90;;;;;;4443429;32;20497;-69
2021/10/31 04:47:11;;;;;;;0.95;0.82;;;12.10;99.90;;;;;;4444036;32;20123;-69
2021/10/31 04:49:37;;;;;;;2.28;1.52;;;12.10;99.90;;;;;;4445146;32;20521;-69
2021/10/31 04:52:03;;;;;;;0.73;0.68;;;12.10;99.90;;;;;;4444810;32;20445;-69
2021/10/31 04:54:29;;;;;;;0.52;0.45;;;12.00;99.90;;;;;;4444543;32;20127;-69
2021/10/31 04:56:55;;;;;;;0.88;0.88;;;12.10;99.90;;;;;;4444536;32;20494;-69
2021/10/31 04:59:20;;;;;;;0.82;0.73;;;12.10;99.90;;;;;;4444091;32;20100;-69
2021/10/31 05:01:46;;;;;;;0.77;0.70;;;12.10;99.90;;;;;;4443623;32;20068;-69
2021/10/31 05:04:12;;;;;;;0.40;0.40;;;12.10;99.90;;;;;;4443688;32;20073;-69
2021/10/31 05:06:38;;;;;;;0.52;0.50;;;12.10;99.90;;;;;;4444691;32;20076;-69
2021/10/31 05:09:04;;;;;;;0.82;0.80;;;12.20;99.90;;;;;;4444557;32;20093;-69
2021/10/31 05:11:29;;;;;;;1.15;1.00;;;12.20;99.90;;;;;;4444557;32;20120;-69
2021/10/31 05:13:55;;;;;;;2.70;0.90;;;12.20;99.90;;;;;;4443319;32;20061;-68
2021/10/31 05:16:21;;;;;;;1.95;0.70;;;12.20;99.90;;;;;;4443378;32;20077;-69
2021/10/31 05:18:46;;;;;;;0.52;0.52;;;12.20;99.90;;;;;;4443771;32;20078;-69
2021/10/31 05:21:12;;;;;;;0.70;0.70;;;12.20;99.90;;;;;;4443857;32;20075;-69
2021/10/31 05:23:37;;;;;;;11.27;0.73;;;12.20;99.90;;;;;;4441259;32;20401;-69
2021/10/31 05:26:03;;;;;;;0.50;0.50;;;12.10;99.90;;;;;;4432654;32;20436;-69
2021/10/31 05:28:31;;;;;;;1.80;0.95;;;12.10;99.90;;;;;;4443291;32;20085;-68
2021/10/31 05:30:57;;;;;;;0.73;0.70;;;12.20;99.90;;;;;;4443398;32;20123;-69
2021/10/31 05:33:23;;;;;;;1.23;0.68;;;12.20;99.90;;;;;;4443065;32;20065;-69
2021/10/31 05:35:51;;;;;;;0.57;0.57;;;12.20;99.90;;;;;;4442711;32;20535;-69
2021/10/31 05:38:19;;;;;;;0.80;0.70;;;12.20;99.90;;;;;;4443439;32;20124;-69
2021/10/31 05:40:45;;;;;;;6.85;1.10;;;12.20;99.90;;;;;;4443148;32;20127;-69
2021/10/31 05:43:11;;;;;;;0.80;0.80;;;12.10;99.90;;;;;;4443242;32;20121;-68
2021/10/31 05:45:36;;;;;;;1.87;1.12;;;12.10;99.90;;;;;;4443251;32;20577;-69
2021/10/31 05:48:02;;;;;;;0.68;0.68;;;12.20;99.90;;;;;;4444364;32;20058;-69
2021/10/31 05:50:27;;;;;;;1.12;1.02;;;12.20;99.90;;;;;;4444240;32;20523;-69
2021/10/31 05:52:53;;;;;;;1.00;0.60;;;12.20;99.90;;;;;;4443748;32;20467;-68
2021/10/31 05:55:19;;;;;;;2.78;1.00;;;12.20;99.90;;;;;;4443504;32;20082;-69
2021/10/31 05:57:45;;;;;;;0.57;0.57;;;12.10;99.90;;;;;;4443034;32;20152;-69
2021/10/31 06:00:13;;;;;;;1.70;0.93;;;12.10;99.90;;;;;;4443631;32;20443;-69
2021/10/31 06:02:39;;;;;;;0.30;0.30;;;11.90;99.90;;;;;;4442922;32;20066;-69
2021/10/31 06:05:05;;;;;;;0.60;0.60;;;11.80;99.90;;;;;;4442470;32;20078;-69
2021/10/31 06:07:31;;;;;;;0.65;0.65;;;11.90;99.90;;;;;;4445003;32;20085;-69
2021/10/31 06:09:58;;;;;;;2.67;0.80;;;11.90;99.90;;;;;;4445741;32;20530;-69
2021/10/31 06:12:24;;;;;;;1.67;0.93;;;11.80;99.90;;;;;;4445486;32;20089;-69
2021/10/31 06:14:50;;;;;;;2.55;1.12;;;11.60;99.90;;;;;;4444595;32;20069;-69
2021/10/31 06:17:15;;;;;;;1.17;0.95;;;11.50;99.90;;;;;;4445138;32;20144;-69
2021/10/31 06:19:41;;;;;;;3.75;1.00;;;11.30;99.90;;;;;;4445273;32;20435;-68
2021/10/31 06:22:07;;;;;;;2.25;1.37;;;11.20;99.90;;;;;;4445713;32;20688;-69
2021/10/31 06:24:32;;;;;;;2.80;0.93;;;11.20;99.90;;;;;;4437512;32;20078;-70
2021/10/31 06:26:58;;;;;;;2.90;1.20;;;11.20;99.90;;;;;;4431040;32;20069;-70
2021/10/31 06:29:24;;;;;;;1.37;0.77;;;11.20;99.90;;;;;;4445306;32;20065;-69
2021/10/31 06:31:50;;;;;;;3.65;1.20;;;11.20;99.90;;;;;;4445447;32;20077;-69
2021/10/31 06:34:15;;;;;;;0.62;0.62;;;11.20;99.90;;;;;;4445391;32;20162;-70
2021/10/31 06:36:42;;;;;;;1.45;1.00;;;11.30;99.90;;;;;;4446210;32;20766;-69
2021/10/31 06:39:08;;;;;;;1.30;1.20;;;11.40;99.90;;;;;;4445647;32;20110;-67
2021/10/31 06:41:33;;;;;;;0.62;0.62;;;11.50;99.90;;;;;;4444940;32;20131;-69
2021/10/31 06:43:59;;;;;;;1.98;1.05;;;11.50;99.90;;;;;;4446273;32;20093;-69
2021/10/31 06:46:25;;;;;;;5.47;1.85;;;11.50;99.90;;;;;;4445625;32;20073;-69
2021/10/31 06:48:52;;;;;;;2.20;1.02;;;11.50;99.90;;;;;;4446396;32;20487;-69
2021/10/31 06:51:18;;;;;;;3.33;1.00;;;11.60;99.90;;;;;;4444988;32;20073;-69
2021/10/31 06:53:44;;;;;;;1.37;0.93;;;11.70;99.90;;;;;;4445273;32;20112;-69
2021/10/31 06:56:11;;;;;;;2.12;0.82;;;11.80;99.90;;;;;;4445435;32;20076;-70
2021/10/31 06:58:36;;;;;;;2.50;1.10;;;11.80;99.90;;;;;;4444736;32;20069;-69
2021/10/31 07:01:02;;;;;;;3.03;1.12;;;11.90;99.90;;;;;;4445188;32;20070;-69
2021/10/31 07:03:27;;;;;;;1.58;0.82;;;12.00;99.90;;;;;;4445238;32;20258;-69
2021/10/31 07:05:53;;;;;;;2.10;1.12;;;12.00;99.90;;;;;;4445084;32;20065;-70
2021/10/31 07:08:18;;;;;;;2.28;1.02;;;12.10;99.90;;;;;;4444804;32;20529;-69
2021/10/31 07:10:44;;;;;;;2.65;1.37;;;12.20;99.90;;;;;;4445139;32;20167;-68
2021/10/31 07:13:09;;;;;;;1.20;1.08;;;12.20;99.90;;;;;;4445276;32;20110;-67
2021/10/31 07:15:35;;;;;;;1.77;1.48;;;12.30;99.90;;;;;;4444503;32;20077;-69
2021/10/31 07:18:00;;;;;;;2.20;1.27;;;12.30;99.90;;;;;;4444917;32;20081;-68
2021/10/31 07:20:26;;;;;;;0.93;0.93;;;12.40;99.90;;;;;;4445442;32;20392;-68
2021/10/31 07:22:53;;;;;;;0.80;0.80;;;12.50;99.90;;;;;;4444692;32;20061;-68
2021/10/31 07:25:22;;;;;;;3.60;1.40;;;12.50;99.90;;;;;;4431569;32;20065;-69
2021/10/31 07:27:47;;;;;;;1.48;1.08;;;12.50;99.90;;;;;;4435637;32;20199;-70
2021/10/31 07:30:14;;;;;;;1.27;0.90;;;12.60;99.90;;;;;;4445233;32;20069;-69
2021/10/31 07:32:39;;;;;;;2.12;1.02;;;12.60;99.90;;;;;;4444649;32;20073;-70
2021/10/31 07:35:06;;;;;;;0.77;0.77;;;12.70;99.90;;;;;;4445238;32;20089;-70
2021/10/31 07:37:33;;;;;;;1.30;0.77;;;12.80;99.90;;;;;;4445521;32;20073;-69
2021/10/31 07:40:00;;;;;;;2.25;0.88;;;13.00;99.90;;;;;;4445517;32;20069;-69
2021/10/31 07:42:28;;;;;;;2.37;1.90;;;13.10;99.90;;;;;;4444649;32;20494;-69
2021/10/31 07:44:55;;;;;;;3.28;1.30;;;13.10;99.90;;;;;;4444505;32;20413;-69
2021/10/31 07:47:21;;;;;;;0.77;0.77;;;13.20;99.90;;;;;;4445888;32;20550;-69
2021/10/31 07:49:46;;;;;;;1.75;0.98;;;13.30;99.90;;;;;;4444472;32;20072;-69
2021/10/31 07:52:12;;;;;;;3.45;1.50;;;13.40;99.90;;;;;;4444535;32;20065;-69
2021/10/31 07:54:37;;;;;;;0.93;0.93;;;13.50;99.90;;;;;;4444416;32;20439;-69
2021/10/31 07:57:04;;;;;;;0.70;0.70;;;13.60;99.90;;;;;;4444843;32;20065;-69
2021/10/31 07:59:30;;;;;;;0.68;0.68;;;13.60;99.90;;;;;;4444054;32;20068;-69
2021/10/31 08:01:55;;;;;;;4.28;1.75;;;13.60;99.90;;;;;;4444847;32;20060;-69
2021/10/31 08:04:22;;;;;;;2.12;1.52;;;13.70;99.90;;;;;;4443882;32;20069;-69
2021/10/31 08:06:48;;;;;;;1.75;1.20;;;13.70;99.90;;;;;;4443679;32;20112;-69
2021/10/31 08:09:13;;;;;;;0.90;0.90;;;13.80;99.90;;;;;;4444400;32;20076;-70
2021/10/31 08:11:42;;;;;;;1.27;0.90;;;13.80;99.90;;;;;;4443451;32;20409;-69
2021/10/31 08:14:09;;;;;;;0.60;0.60;;;13.90;99.90;;;;;;4444006;32;20086;-68
2021/10/31 08:16:36;;;;;;;5.37;2.15;;;14.00;99.90;;;;;;4443993;32;20056;-70
2021/10/31 08:19:03;;;;;;;1.25;0.80;;;14.10;99.90;;;;;;4444078;32;20132;-69
2021/10/31 08:21:28;;;;;;;0.95;0.73;;;14.20;99.90;;;;;;4443922;32;20077;-67
2021/10/31 08:23:54;;;;;;;1.27;1.12;;;14.30;99.90;;;;;;4440739;32;20073;-68
2021/10/31 08:26:19;;;;;;;2.78;1.12;;;14.30;99.90;;;;;;4428869;32;20134;-69
2021/10/31 08:28:45;;;;;;;3.20;1.25;;;14.30;99.90;;;;;;4427834;32;20081;-69
2021/10/31 08:31:10;;;;;;;7.68;0.98;;;14.30;99.90;;;;;;4429534;32;20066;-69
2021/10/31 08:33:43;;;;;;;14.18;0.98;;;14.40;99.90;;;;;;4430060;32;20345;-70
2021/10/31 08:36:09;;;;;;;0.93;0.85;;;14.40;99.90;;;;;;4428118;32;20065;-69
2021/10/31 08:38:35;;;;;;;0.70;0.70;;;14.40;99.90;;;;;;4442250;32;20153;-69
2021/10/31 08:41:01;;;;;;;2.30;1.40;;;14.40;99.90;;;;;;4444838;32;20070;-69
2021/10/31 08:43:27;;;;;;;1.05;0.98;;;14.50;99.90;;;;;;4444070;32;20056;-69
2021/10/31 08:45:53;;;;;;;3.05;0.90;;;14.50;99.90;;;;;;4444132;32;20540;-69
2021/10/31 08:48:19;;;;;;;2.78;1.10;;;14.60;99.90;;;;;;4443829;32;20093;-69
2021/10/31 08:50:45;;;;;;;1.00;0.95;;;14.60;99.90;;;;;;4443281;32;20422;-69
2021/10/31 08:53:11;;;;;;;1.75;0.90;;;14.60;99.90;;;;;;4443484;32;20069;-69
2021/10/31 08:55:40;;;;;;;1.33;0.93;;;14.70;99.90;;;;;;4443709;32;20073;-69
2021/10/31 08:58:07;;;;;;;1.75;1.12;;;14.80;99.90;;;;;;4437429;32;20084;-69
2021/10/31 09:00:33;;;;;;;0.90;0.90;;;14.90;99.90;;;;;;4444435;32;20553;-69
2021/10/31 09:02:59;;;;;;;0.75;0.70;;;14.90;99.90;;;;;;4445048;32;20492;-70
2021/10/31 09:05:26;;;;;;;0.98;0.90;;;14.90;99.90;;;;;;4443683;32;20065;-70
2021/10/31 09:07:51;;;;;;;0.90;0.90;;;14.90;99.90;;;;;;4444246;32;20086;-69
2021/10/31 09:10:17;;;;;;;2.00;0.95;;;15.20;99.90;;;;;;4442828;32;20061;-70
2021/10/31 09:12:43;;;;;;;3.62;1.48;;;15.30;99.90;;;;;;4444401;32;20073;-69
2021/10/31 09:15:08;;;;;;;0.82;0.82;;;15.40;99.90;;;;;;4444886;32;20056;-69
2021/10/31 09:17:34;;;;;;;0.90;0.65;;;15.50;99.90;;;;;;4443394;32;20073;-69
2021/10/31 09:20:00;;;;;;;3.33;1.62;;;15.50;99.90;;;;;;4443547;32;20593;-69
2021/10/31 09:22:25;;;;;;;1.05;0.88;;;15.60;99.90;;;;;;4443933;32;20159;-69
2021/10/31 09:24:51;;;;;;;1.83;1.58;;;15.60;99.90;;;;;;4433256;32;20078;-69
2021/10/31 09:27:17;;;;;;;1.65;1.08;;;15.80;99.90;;;;;;4427821;32;20069;-69
2021/10/31 09:29:43;;;;;;;1.20;1.05;;;15.90;99.90;;;;;;4428206;32;20061;-69
2021/10/31 09:32:08;;;;;;;1.80;0.75;;;15.90;99.90;;;;;;4427619;32;20093;-69
2021/10/31 09:34:34;;;;;;;4.12;2.28;;;16.00;99.90;;;;;;4427778;32;20078;-69
2021/10/31 09:37:01;;;;;;;0.98;0.93;;;16.00;99.90;;;;;;4429794;32;20511;-69
2021/10/31 09:39:26;;;;;;;1.95;1.00;;;16.20;99.90;;;;;;4445829;32;20082;-69
2021/10/31 09:41:52;;;;;;;1.70;1.20;;;16.20;99.90;;;;;;4448024;32;20069;-69
2021/10/31 09:44:25;;;;;;;0.90;0.82;;;16.20;99.90;;;;;;4448760;32;20068;-69
2021/10/31 09:46:50;;;;;;;1.83;1.08;;;16.20;99.90;;;;;;4449099;32;20130;-69
2021/10/31 09:49:17;;;;;;;2.50;0.98;;;16.40;99.90;;;;;;4448549;32;20065;-70
2021/10/31 09:51:47;;;;;;;0.75;0.75;;;16.60;99.90;;;;;;4447941;32;20506;-70
2021/10/31 09:54:14;;;;;;;0.93;0.82;;;16.70;99.90;;;;;;4448194;32;20133;-70
2021/10/31 09:56:41;;;;;;;1.00;0.90;;;16.80;99.90;;;;;;4448064;32;20065;-70
2021/10/31 09:59:11;;;;;;;0.55;0.55;;;16.90;99.90;;;;;;4447746;32;20072;-69
2021/10/31 10:02:26;;;;;;;0.65;0.65;;;16.80;99.90;;;;;;4448115;32;20530;-70
2021/10/31 10:04:35;;;;;;;1.40;0.70;;;16.80;99.90;;;;;;4436632;32;20144;-70
2021/10/31 10:07:03;;;;;;;3.67;0.90;;;16.70;99.90;;;;;;4448979;32;20069;-70
2021/10/31 10:09:30;;;;;;;0.75;0.60;;;16.80;99.90;;;;;;4447551;32;20076;-70
2021/10/31 10:11:58;;;;;;;0.82;0.80;;;16.90;99.90;;;;;;4447931;32;20124;-70
2021/10/31 10:14:27;;;;;;;0.57;0.57;;;17.00;99.90;;;;;;4448385;32;20124;-70
2021/10/31 10:16:57;;;;;;;1.17;1.08;;;17.10;99.90;;;;;;4448228;32;20061;-70
2021/10/31 10:19:25;;;;;;;1.17;1.08;;;17.10;99.90;;;;;;4448380;32;20064;-69
2021/10/31 10:21:53;;;;;;;1.55;0.95;;;17.30;99.90;;;;;;4448102;32;20066;-68
2021/10/31 10:24:19;;;;;;;1.00;0.88;;;17.30;99.90;;;;;;4447852;32;20104;-67
2021/10/31 10:26:45;;;;;;;2.05;1.08;;;17.40;99.90;;;;;;4447394;32;20077;-68
2021/10/31 10:29:15;;;;;;;0.62;0.62;;;17.50;99.90;;;;;;4448369;32;20069;-69
2021/10/31 10:31:43;;;;;;;0.70;0.70;;;17.40;99.90;;;;;;4447570;32;20084;-68
2021/10/31 10:34:11;;;;;;;0.65;0.65;;;17.50;99.90;;;;;;4448231;32;20699;-68
2021/10/31 10:36:47;;;;;;;0.60;0.60;;;17.30;99.90;;;;;;4446421;32;20113;-69
2021/10/31 10:39:16;;;;;;;0.50;0.50;;;17.30;99.90;;;;;;4447919;32;20081;-68
2021/10/31 10:41:48;;;;;;;1.23;1.00;;;17.30;99.90;;;;;;4447171;32;20213;-68
2021/10/31 10:44:17;;;;;;;1.12;0.82;;;17.30;99.90;;;;;;4447795;32;20112;-68
2021/10/31 10:46:44;;;;;;;0.73;0.70;;;17.30;99.90;;;;;;4447645;32;20065;-69
2021/10/31 10:49:11;;;;;;;2.28;0.77;;;17.40;99.90;;;;;;4447175;32;20061;-69
2021/10/31 10:51:37;;;;;;;1.20;0.95;;;17.50;99.90;;;;;;4445541;32;20547;-68
2021/10/31 10:54:11;;;;;;;0.50;0.50;;;17.60;99.90;;;;;;4445083;32;20058;-68
2021/10/31 10:56:37;;;;;;;0.82;0.68;;;17.50;99.90;;;;;;4444829;32;20065;-69
2021/10/31 10:59:02;;;;;;;1.05;1.00;;;17.60;99.90;;;;;;4445265;32;20061;-69
2021/10/31 11:01:28;;;;;;;3.17;0.85;;;17.60;99.90;;;;;;4445259;32;20380;-69
2021/10/31 11:03:54;;;;;;;0.55;0.55;;;17.80;99.90;;;;;;4445074;32;20120;-69
2021/10/31 11:06:27;;;;;;;0.75;0.60;;;18.00;99.90;;;;;;4445299;32;20155;-69
2021/10/31 11:09:12;;;;;;;0.68;0.45;;;18.20;99.90;;;;;;4444916;32;20127;-69
2021/10/31 11:11:38;;;;;;;0.70;0.70;;;18.40;99.90;;;;;;4444291;32;20539;-69
2021/10/31 11:14:03;;;;;;;1.08;0.62;;;18.70;99.90;;;;;;4445038;32;20072;-69
2021/10/31 11:16:29;;;;;;;0.57;0.57;;;18.60;99.90;;;;;;4445111;32;20065;-69
2021/10/31 11:18:55;;;;;;;0.47;0.47;;;18.60;99.90;;;;;;4444687;32;20115;-69
2021/10/31 11:21:20;;;;;;;3.28;0.77;;;18.90;99.90;;;;;;4445103;32;20077;-69
2021/10/31 11:23:47;;;;;;;1.15;1.05;;;18.90;99.90;;;;;;4442176;32;20070;-69
2021/10/31 11:26:15;;;;;;;0.93;0.73;;;18.90;99.90;;;;;;4430269;32;20128;-69
2021/10/31 11:28:40;;;;;;;0.62;0.62;;;18.90;99.90;;;;;;4429228;32;20073;-70
2021/10/31 11:31:06;;;;;;;3.00;1.40;;;19.20;99.90;;;;;;4430183;32;20405;-69
2021/10/31 11:33:33;;;;;;;1.80;0.80;;;19.40;99.90;;;;;;4429374;32;20064;-69
2021/10/31 11:35:58;;;;;;;1.40;0.77;;;20.00;99.90;;;;;;4429241;32;20082;-69
2021/10/31 11:38:24;;;;;;;0.85;0.85;;;20.20;99.90;;;;;;4440001;32;20069;-69
2021/10/31 11:40:56;;;;;;;0.57;0.57;;;20.40;99.90;;;;;;4444218;32;20073;-69
2021/10/31 11:43:25;;;;;;;0.70;0.50;;;20.20;99.90;;;;;;4444621;32;20172;-69
2021/10/31 11:45:52;;;;;;;0.45;0.45;;;20.30;99.90;;;;;;4444641;32;20732;-69
2021/10/31 11:48:20;;;;;;;0.32;0.32;;;20.30;99.90;;;;;;4444594;32;20667;-69
2021/10/31 11:51:05;;;;;;;2.90;1.15;;;20.50;99.90;;;;;;4444499;32;20128;-69
2021/10/31 11:53:39;;;;;;;1.20;0.88;;;20.70;99.90;;;;;;4444291;32;20074;-69
2021/10/31 11:56:19;;;;;;;0.47;0.45;;;20.70;99.90;;;;;;4444167;32;20474;-69
2021/10/31 11:58:50;;;;;;;2.30;0.60;;;20.80;99.90;;;;;;4444456;32;20061;-69
2021/10/31 12:01:20;;;;;;;1.37;0.95;;;20.80;99.90;;;;;;4444551;32;20056;-69
2021/10/31 12:03:49;;;;;;;0.30;0.30;;;20.80;99.90;;;;;;4444204;32;20068;-69
2021/10/31 12:06:17;;;;;;;0.77;0.77;;;21.10;99.90;;;;;;4444177;32;20073;-69
2021/10/31 12:08:46;;;;;;;5.45;0.68;;;21.10;99.90;;;;;;4429956;32;20082;-69
2021/10/31 12:11:12;;;;;;;0.60;0.60;;;21.10;99.90;;;;;;4443851;32;20455;-69
2021/10/31 12:13:46;;;;;;;0.35;0.35;;;21.10;99.90;;;;;;4442661;32;20108;-69
2021/10/31 12:16:14;;;;;;;2.65;0.40;;;21.50;99.90;;;;;;4444341;32;20065;-69
2021/10/31 12:18:43;;;;;;;0.50;0.50;;;21.80;99.90;;;;;;4444041;32;20569;-69
2021/10/31 12:21:28;;;;;;;0.40;0.40;;;21.90;99.90;;;;;;4438016;32;20477;-69
2021/10/31 12:24:07;;;;;;;0.85;0.50;;;21.90;99.90;;;;;;4439903;32;20094;-69
2021/10/31 12:26:36;;;;;;;0.60;0.50;;;21.70;99.90;;;;;;4429472;32;20056;-69
2021/10/31 12:29:20;;;;;;;0.93;0.70;;;21.70;99.90;;;;;;4428675;32;20523;-69
2021/10/31 12:32:07;;;;;;;0.30;0.30;;;21.90;99.90;;;;;;4428705;32;20065;-69
2021/10/31 12:34:38;;;;;;;0.47;0.47;;;21.80;99.90;;;;;;4416922;32;20087;-69
2021/10/31 12:37:21;;;;;;;;;;;21.70;99.90;;;;;;4431071;32;20116;-69
2021/10/31 12:39:51;;;;;;;0.62;0.60;;;21.60;99.90;;;;;;4443561;32;19952;-69
2021/10/31 12:42:22;;;;;;;0.40;0.40;;;21.30;99.90;;;;;;4442984;32;20583;-69
2021/10/31 12:45:16;;;;;;;0.62;0.62;;;21.20;99.90;;;;;;4443697;32;20093;-69
2021/10/31 12:47:44;;;;;;;0.65;0.65;;;21.10;99.90;;;;;;4433729;32;20135;-69
2021/10/31 12:50:17;;;;;;;0.30;0.30;;;20.90;99.90;;;;;;4444765;32;20487;-69
2021/10/31 12:52:44;;;;;;;0.60;0.60;;;20.90;99.90;;;;;;4443920;32;20089;-69